Time;durP1;ratioP1;P1;durP2;ratioP2;P2;SDS_P1;SDS_P2;PMS_P1;PMS_P2;Temp;Humidity;BMP_temperature;BMP_pressure;BME280_temperature;BME280_humidity;BME280_pressure;Samples;Min_cycle;Max_cycle;Signal;HPM_P1;HPM_P2
2022/06/14 00:00:53;;;;;;;1999.90;999.90;;;16.50;94.60;;;;;;4974686;28;20030;-76
2022/06/14 00:03:49;;;;;;;1999.90;999.90;;;16.50;94.50;;;;;;4973354;28;20073;-76
2022/06/14 00:06:17;;;;;;;1999.90;999.90;;;16.40;94.70;;;;;;4950484;28;20096;-75
2022/06/14 00:08:43;;;;;;;1999.90;999.90;;;16.40;94.80;;;;;;4970116;28;20031;-76
2022/06/14 00:11:16;;;;;;;1999.90;999.90;;;16.40;94.80;;;;;;4955161;28;20031;-76
2022/06/14 00:13:43;;;;;;;1999.90;999.90;;;16.40;94.90;;;;;;4937955;29;20504;-83
2022/06/14 00:16:09;;;;;;;1999.90;999.90;;;16.30;94.90;;;;;;4954943;29;20031;-88
2022/06/14 00:18:35;;;;;;;1999.90;999.90;;;16.30;95.20;;;;;;4937985;29;20174;-76
2022/06/14 00:21:01;;;;;;;1999.90;999.90;;;16.30;95.20;;;;;;4962861;28;20041;-76
2022/06/14 00:23:28;;;;;;;1999.90;999.90;;;16.20;95.10;;;;;;4974519;28;20114;-76
2022/06/14 00:25:55;;;;;;;1999.90;999.90;;;16.20;95.30;;;;;;4974535;28;20113;-75
2022/06/14 00:28:23;;;;;;;1999.90;999.90;;;16.20;95.20;;;;;;4946713;29;20071;-75
2022/06/14 00:30:51;;;;;;;1999.90;999.90;;;16.10;95.50;;;;;;4954725;29;20050;-76
2022/06/14 00:33:17;;;;;;;1999.90;999.90;;;16.10;95.60;;;;;;4954416;29;20035;-87
2022/06/14 00:35:43;;;;;;;1999.90;999.90;;;16.10;95.70;;;;;;4958206;29;20078;-75
2022/06/14 00:38:13;;;;;;;1999.90;999.90;;;16.00;95.70;;;;;;4954842;29;20035;-76
2022/06/14 00:40:41;;;;;;;1999.90;999.90;;;16.00;95.90;;;;;;4953496;29;20062;-75
2022/06/14 00:43:18;;;;;;;1999.90;999.90;;;16.00;95.90;;;;;;4955401;29;20028;-75
2022/06/14 00:45:44;;;;;;;1999.90;999.90;;;16.00;95.90;;;;;;4951131;29;20027;-75
2022/06/14 00:48:23;;;;;;;1999.90;999.90;;;16.00;96.10;;;;;;4937287;29;20094;-76
2022/06/14 00:51:00;;;;;;;1999.90;999.90;;;15.90;96.10;;;;;;4937520;29;20046;-76
2022/06/14 00:53:30;;;;;;;1999.90;999.90;;;15.90;96.30;;;;;;4954055;29;20059;-86
2022/06/14 00:56:02;;;;;;;1999.90;999.90;;;15.90;96.20;;;;;;4938339;29;20094;-86
2022/06/14 00:58:37;;;;;;;1999.90;999.90;;;15.80;96.30;;;;;;4954255;29;20031;-76
2022/06/14 01:01:09;;;;;;;1999.90;999.90;;;15.80;96.40;;;;;;4954563;29;20407;-76
2022/06/14 01:03:42;;;;;;;1999.90;999.90;;;15.80;96.40;;;;;;4954421;29;20058;-76
2022/06/14 01:06:13;;;;;;;;;;;15.80;96.40;;;;;;4954279;29;20023;-76
2022/06/14 01:08:43;;;;;;;1999.90;999.90;;;15.70;96.60;;;;;;4955384;28;19907;-76
2022/06/14 01:11:14;;;;;;;1999.90;999.90;;;15.70;96.60;;;;;;4965033;28;20031;-76
2022/06/14 01:13:41;;;;;;;1999.90;999.90;;;15.70;96.80;;;;;;4958235;29;20470;-86
2022/06/14 01:16:09;;;;;;;1999.90;999.90;;;15.70;96.90;;;;;;4957663;29;20023;-87
2022/06/14 01:18:36;;;;;;;1999.90;999.90;;;15.60;96.90;;;;;;4958067;29;20027;-76
2022/06/14 01:21:02;;;;;;;1999.90;999.90;;;15.60;97.00;;;;;;4959803;29;20031;-75
2022/06/14 01:23:28;;;;;;;1999.90;999.90;;;15.50;97.00;;;;;;4975958;28;20034;-75
2022/06/14 01:26:16;;;;;;;1999.90;999.90;;;15.50;97.40;;;;;;4977372;28;20545;-76
2022/06/14 01:28:46;;;;;;;1999.90;999.90;;;15.50;97.50;;;;;;4979037;28;20023;-75
2022/06/14 01:31:14;;;;;;;1999.90;999.90;;;15.40;97.60;;;;;;4977148;28;20408;-75
2022/06/14 01:33:50;;;;;;;1999.90;999.90;;;15.40;97.70;;;;;;4977349;28;20032;-76
2022/06/14 01:36:23;;;;;;;1999.90;999.90;;;15.30;97.80;;;;;;4955881;29;20024;-76
2022/06/14 01:38:49;;;;;;;1999.90;999.90;;;15.30;98.00;;;;;;4958026;29;20117;-76
2022/06/14 01:41:42;;;;;;;1999.90;999.90;;;15.30;98.00;;;;;;4958017;29;20031;-86
2022/06/14 01:44:29;;;;;;;1999.90;999.90;;;15.20;98.20;;;;;;4957598;29;20035;-76
2022/06/14 01:46:56;;;;;;;1999.90;999.90;;;15.20;98.30;;;;;;4964326;28;20024;-76
2022/06/14 01:52:36;;;;;;;1999.90;999.90;;;15.10;98.60;;;;;;4957221;29;20050;-76
2022/06/14 01:55:34;;;;;;;1999.90;999.90;;;15.10;98.60;;;;;;4957227;29;20027;-75
2022/06/14 01:58:08;;;;;;;1999.90;999.90;;;15.10;98.70;;;;;;4938034;28;20055;-86
2022/06/14 02:00:42;;;;;;;1999.90;999.90;;;15.00;98.80;;;;;;4976744;28;20054;-75
2022/06/14 02:07:05;;;;;;;1999.90;999.90;;;15.00;99.00;;;;;;4975953;28;20414;-75
2022/06/14 02:09:42;;;;;;;1999.90;999.90;;;15.00;99.10;;;;;;4965548;28;20563;-75
2022/06/14 02:12:13;;;;;;;1999.90;999.90;;;14.90;99.30;;;;;;4965888;28;20059;-87
2022/06/14 02:14:51;;;;;;;1999.90;999.90;;;14.80;99.40;;;;;;4923812;29;20038;-75
2022/06/14 02:17:25;;;;;;;1999.90;999.90;;;14.80;99.40;;;;;;4939546;29;20019;-75
2022/06/14 02:20:02;;;;;;;1999.90;999.90;;;14.80;99.50;;;;;;4939555;28;20027;-77
2022/06/14 02:22:36;;;;;;;1999.90;999.90;;;14.80;99.60;;;;;;4966381;28;20166;-75
2022/06/14 02:25:09;;;;;;;1999.90;999.90;;;14.80;99.60;;;;;;4959102;28;20114;-86
2022/06/14 02:27:39;;;;;;;1999.90;999.90;;;14.80;99.70;;;;;;4976026;28;20509;-75
2022/06/14 02:30:11;;;;;;;1999.90;999.90;;;14.80;99.80;;;;;;4939634;29;20388;-76
2022/06/14 02:33:01;;;;;;;1999.90;999.90;;;14.80;99.70;;;;;;4956878;29;20026;-75
2022/06/14 02:35:36;;;;;;;1999.90;999.90;;;14.80;99.70;;;;;;4949251;29;20024;-75
2022/06/14 02:38:12;;;;;;;1999.90;999.90;;;14.80;99.80;;;;;;4955826;29;20023;-75
2022/06/14 02:41:01;;;;;;;1999.90;999.90;;;14.80;99.90;;;;;;4956477;29;20034;-76
2022/06/14 02:43:30;;;;;;;1999.90;999.90;;;14.80;99.90;;;;;;4956456;29;20022;-75
2022/06/14 02:46:18;;;;;;;1999.90;999.90;;;14.80;99.90;;;;;;4951778;29;20107;-75
2022/06/14 02:48:57;;;;;;;1999.90;999.90;;;14.80;99.90;;;;;;4932989;29;20044;-75
2022/06/14 02:51:49;;;;;;;1999.90;999.90;;;14.80;99.90;;;;;;4956005;29;20082;-76
2022/06/14 02:54:39;;;;;;;1999.90;999.90;;;14.70;99.90;;;;;;4956411;29;20150;-86
2022/06/14 02:57:38;;;;;;;1999.90;999.90;;;14.80;99.90;;;;;;4948559;29;20071;-86
2022/06/14 03:00:24;;;;;;;1999.90;999.90;;;14.70;99.90;;;;;;4963670;28;20043;-75
2022/06/14 03:03:03;;;;;;;1999.90;999.90;;;14.80;99.90;;;;;;4956187;29;20030;-86
2022/06/14 03:05:55;;;;;;;1999.90;999.90;;;14.80;99.90;;;;;;4956465;29;20510;-75
2022/06/14 03:08:35;;;;;;;1999.90;999.90;;;14.80;99.90;;;;;;4955603;29;20517;-75
2022/06/14 03:11:25;;;;;;;1999.90;999.90;;;14.80;99.90;;;;;;4963199;28;20077;-75
2022/06/14 03:13:59;;;;;;;1999.90;999.90;;;14.80;99.90;;;;;;4955824;29;20033;-86
2022/06/14 03:16:34;;;;;;;1999.90;999.90;;;14.80;99.90;;;;;;4955914;29;20054;-76
2022/06/14 03:19:27;;;;;;;1999.90;999.90;;;14.90;99.90;;;;;;4953803;28;20113;-86
2022/06/14 03:22:17;;;;;;;1999.90;999.90;;;14.90;99.90;;;;;;4937389;29;20174;-83
2022/06/14 03:25:07;;;;;;;1999.90;999.90;;;14.90;99.90;;;;;;4966686;28;20049;-77
2022/06/14 03:27:41;;;;;;;1999.90;999.90;;;14.90;99.90;;;;;;4957591;28;20501;-76
2022/06/14 03:30:23;;;;;;;1999.90;999.90;;;15.00;99.90;;;;;;4943644;29;20070;-76
2022/06/14 03:33:30;;;;;;;1999.90;999.90;;;15.00;99.90;;;;;;4955200;28;20039;-75
2022/06/14 03:35:56;;;;;;;1999.90;999.90;;;15.00;99.90;;;;;;4957341;28;20035;-75
2022/06/14 03:38:45;;;;;;;1999.90;999.90;;;14.90;99.90;;;;;;4955598;29;20028;-76
2022/06/14 03:41:13;;;;;;;1999.90;999.90;;;14.90;99.90;;;;;;4937686;29;20027;-76
2022/06/14 03:43:39;;;;;;;1999.90;999.90;;;14.90;99.90;;;;;;4959295;29;20055;-75
2022/06/14 03:46:09;;;;;;;1999.90;999.90;;;14.80;99.90;;;;;;4958721;28;20023;-75
2022/06/14 03:48:38;;;;;;;1999.90;999.90;;;14.80;99.90;;;;;;4956075;28;20058;-76
2022/06/14 03:51:06;;;;;;;1999.90;999.90;;;14.80;99.90;;;;;;4954299;28;20030;-84
2022/06/14 03:53:47;;;;;;;1999.90;999.90;;;14.80;99.90;;;;;;4974122;28;20050;-76
2022/06/14 03:56:12;;;;;;;1999.90;999.90;;;14.70;99.90;;;;;;4944797;29;20506;-76
2022/06/14 03:58:38;;;;;;;1999.90;999.90;;;14.80;99.90;;;;;;4952545;29;20036;-76
2022/06/14 04:01:14;;;;;;;1999.90;999.90;;;14.70;99.90;;;;;;4970025;28;20066;-75
2022/06/14 04:04:08;;;;;;;1999.90;999.90;;;14.70;99.90;;;;;;4974483;28;20493;-75
2022/06/14 04:06:33;;;;;;;1999.90;999.90;;;14.70;99.90;;;;;;4973785;28;20031;-76
2022/06/14 04:09:08;;;;;;;1999.90;999.90;;;14.70;99.90;;;;;;4967791;28;20035;-86
2022/06/14 04:11:59;;;;;;;1999.90;999.90;;;14.70;99.90;;;;;;4964268;28;20098;-74
2022/06/14 04:14:35;;;;;;;1999.90;999.90;;;14.70;99.90;;;;;;4955975;29;20030;-76
2022/06/14 04:17:29;;;;;;;1999.90;999.90;;;14.60;99.90;;;;;;4954702;29;20023;-75
2022/06/14 04:20:10;;;;;;;1999.90;999.90;;;14.60;99.90;;;;;;4954743;29;20023;-85
2022/06/14 04:23:09;;;;;;;1999.90;999.90;;;14.60;99.90;;;;;;4965248;28;20022;-75
2022/06/14 04:25:43;;;;;;;1999.90;999.90;;;14.70;99.90;;;;;;4953561;28;20409;-75
2022/06/14 04:28:09;;;;;;;1999.90;999.90;;;14.70;99.90;;;;;;4974054;28;20418;-75
2022/06/14 04:30:39;;;;;;;1999.90;999.90;;;14.70;99.90;;;;;;4956748;28;20039;-76
2022/06/14 04:33:27;;;;;;;1999.90;999.90;;;14.70;99.90;;;;;;4956643;28;20390;-76
2022/06/14 04:36:12;;;;;;;1999.90;999.90;;;14.70;99.90;;;;;;4957032;28;20035;-85
2022/06/14 04:38:37;;;;;;;1999.90;999.90;;;14.70;99.90;;;;;;4954171;29;20038;-75
2022/06/14 04:41:31;;;;;;;1999.90;999.90;;;14.70;99.90;;;;;;4954489;29;20027;-85
2022/06/14 04:44:14;;;;;;;1999.90;999.90;;;14.70;99.90;;;;;;4954553;28;20042;-85
2022/06/14 04:47:01;;;;;;;1999.90;999.90;;;14.80;99.90;;;;;;4967955;28;20143;-75
2022/06/14 04:49:47;;;;;;;1999.90;999.90;;;14.80;99.90;;;;;;4960821;29;20114;-76
2022/06/14 04:52:39;;;;;;;1999.90;999.90;;;14.90;99.90;;;;;;4949894;29;20085;-76
2022/06/14 04:55:11;;;;;;;1999.90;999.90;;;14.90;99.90;;;;;;4960147;28;20045;-76
2022/06/14 04:57:58;;;;;;;1999.90;999.90;;;14.90;99.90;;;;;;4960928;29;20298;-76
2022/06/14 05:00:30;;;;;;;1999.90;999.90;;;15.00;99.90;;;;;;4957693;29;20086;-86
2022/06/14 05:03:05;;;;;;;1999.90;999.90;;;15.00;99.90;;;;;;4943525;29;20031;-76
2022/06/14 05:05:38;;;;;;;1999.90;999.90;;;15.10;99.90;;;;;;4960630;28;20027;-76
2022/06/14 05:08:17;;;;;;;1999.90;999.90;;;15.10;99.90;;;;;;4960670;28;20114;-77
2022/06/14 05:10:51;;;;;;;1999.90;999.90;;;15.10;99.90;;;;;;4954095;29;20046;-78
2022/06/14 05:13:30;;;;;;;1999.90;999.90;;;15.20;99.90;;;;;;4942845;29;20035;-73
2022/06/14 05:16:07;;;;;;;1999.90;999.90;;;15.30;99.90;;;;;;4960562;28;20104;-86
2022/06/14 05:18:47;;;;;;;1999.90;999.90;;;15.40;99.90;;;;;;4960387;29;20023;-77
2022/06/14 05:21:20;;;;;;;1999.90;999.90;;;15.40;99.90;;;;;;4954987;28;20074;-78
2022/06/14 05:23:52;;;;;;;1999.90;999.90;;;15.50;99.90;;;;;;4949230;29;20027;-78
2022/06/14 05:26:30;;;;;;;1999.90;999.90;;;15.50;99.90;;;;;;4960703;29;20114;-86
2022/06/14 05:29:25;;;;;;;1999.90;999.90;;;15.60;99.90;;;;;;4960367;29;20098;-83
2022/06/14 05:32:09;;;;;;;1999.90;999.90;;;15.70;99.90;;;;;;4960325;28;20395;-78
2022/06/14 05:34:46;;;;;;;1999.90;999.90;;;15.80;99.90;;;;;;4959854;28;20394;-78
2022/06/14 05:37:17;;;;;;;1999.90;999.90;;;15.80;99.90;;;;;;4959155;28;20406;-85
2022/06/14 05:39:54;;;;;;;1999.90;999.90;;;15.90;99.90;;;;;;4957708;28;20027;-87
2022/06/14 05:42:22;;;;;;;1999.90;999.90;;;16.00;99.90;;;;;;4953278;28;20027;-77
2022/06/14 05:44:53;;;;;;;1999.90;999.90;;;16.10;99.90;;;;;;4959629;28;20494;-77
2022/06/14 05:47:32;;;;;;;1999.90;999.90;;;16.20;99.90;;;;;;4964194;28;20525;-87
2022/06/14 05:50:02;;;;;;;1999.90;999.90;;;16.30;99.90;;;;;;4962084;28;20386;-82
2022/06/14 05:52:42;;;;;;;1999.90;999.90;;;16.40;99.90;;;;;;4958555;28;20070;-87
2022/06/14 05:55:21;;;;;;;1999.90;999.90;;;16.50;99.90;;;;;;4966139;28;20468;-88
2022/06/14 05:57:54;;;;;;;1999.90;999.90;;;16.70;99.90;;;;;;4955898;29;20098;-79
2022/06/14 06:00:23;;;;;;;1999.90;999.90;;;16.70;99.90;;;;;;4949268;29;20081;-89
2022/06/14 06:03:12;;;;;;;1999.90;999.90;;;16.80;99.90;;;;;;4936812;29;20035;-78
2022/06/14 06:06:06;;;;;;;1999.90;999.90;;;16.90;99.90;;;;;;4954987;29;20442;-88
2022/06/14 06:08:40;;;;;;;1999.90;999.90;;;17.00;99.70;;;;;;4968943;28;20034;-91
2022/06/14 06:11:10;;;;;;;1999.90;999.90;;;17.10;99.40;;;;;;4961102;28;20019;-78
2022/06/14 06:14:08;;;;;;;1999.90;999.90;;;17.20;99.40;;;;;;4952379;29;20391;-80
2022/06/14 06:17:05;;;;;;;1999.90;999.90;;;17.30;99.00;;;;;;4956187;29;20035;-79
2022/06/14 06:19:53;;;;;;;1999.90;999.90;;;17.50;98.90;;;;;;4949665;29;20038;-91
2022/06/14 06:22:36;;;;;;;1999.90;999.90;;;17.70;98.70;;;;;;4953495;28;20031;-79
2022/06/14 06:25:31;;;;;;;1999.90;999.90;;;17.80;98.60;;;;;;4969710;28;20027;-79
2022/06/14 06:28:13;;;;;;;1999.90;999.90;;;17.90;98.40;;;;;;4954701;29;20483;-83
2022/06/14 06:31:03;;;;;;;1999.90;999.90;;;18.10;98.00;;;;;;4955820;29;20031;-91
2022/06/14 06:33:32;;;;;;;1999.90;999.90;;;18.20;97.70;;;;;;4948475;28;20053;-91
2022/06/14 06:36:18;;;;;;;1999.90;999.90;;;18.30;97.80;;;;;;4952320;28;20034;-80
2022/06/14 06:39:25;;;;;;;1999.90;999.90;;;18.50;97.80;;;;;;4951265;28;20376;-79
2022/06/14 06:41:55;;;;;;;1999.90;999.90;;;18.60;97.30;;;;;;4943723;29;20521;-80
2022/06/14 06:44:37;;;;;;;1999.90;999.90;;;18.70;97.40;;;;;;4954258;28;20094;-90
2022/06/14 06:47:28;;;;;;;1999.90;999.90;;;18.90;97.00;;;;;;4949307;28;20058;-89
2022/06/14 06:50:20;;;;;;;1999.90;999.90;;;19.00;96.70;;;;;;4949804;28;20110;-79
2022/06/14 06:53:30;;;;;;;1999.90;999.90;;;19.20;96.70;;;;;;4943335;29;20059;-79
2022/06/14 06:56:22;;;;;;;1999.90;999.90;;;19.40;96.10;;;;;;4928327;29;20051;-92
2022/06/14 06:58:51;;;;;;;1999.90;999.90;;;19.50;96.20;;;;;;4936157;29;20546;-88
2022/06/14 07:01:22;;;;;;;1999.90;999.90;;;19.70;95.90;;;;;;4947857;29;20059;-86
2022/06/14 07:04:12;;;;;;;1999.90;999.90;;;19.90;95.40;;;;;;4949755;29;20443;-80
2022/06/14 07:06:45;;;;;;;1999.90;999.90;;;20.00;95.10;;;;;;4947777;29;20019;-79
2022/06/14 07:09:17;;;;;;;1999.90;999.90;;;20.30;95.30;;;;;;4953722;28;20057;-90
2022/06/14 07:11:46;;;;;;;1999.90;999.90;;;20.50;94.90;;;;;;4945443;29;20063;-91
2022/06/14 07:14:23;;;;;;;1999.90;999.90;;;20.70;94.30;;;;;;4946974;29;20035;-79
2022/06/14 07:17:12;;;;;;;1999.90;999.90;;;20.80;94.10;;;;;;4943292;28;20031;-80
2022/06/14 07:19:50;;;;;;;1999.90;999.90;;;21.10;94.10;;;;;;4935758;29;20035;-92
2022/06/14 07:22:43;;;;;;;1999.90;999.90;;;21.20;94.00;;;;;;4937040;29;20448;-91
2022/06/14 07:25:24;;;;;;;1999.90;999.90;;;21.30;93.60;;;;;;4941465;29;20391;-91
2022/06/14 07:28:13;;;;;;;1999.90;999.90;;;21.60;93.40;;;;;;4944485;29;20524;-87
2022/06/14 07:30:49;;;;;;;1999.90;999.90;;;22.10;92.70;;;;;;4943512;28;20036;-89
2022/06/14 07:33:17;;;;;;;1999.90;999.90;;;23.80;91.10;;;;;;4937183;28;20413;-87
2022/06/14 07:35:50;;;;;;;1999.90;999.90;;;25.80;86.80;;;;;;4942184;28;20043;-89
2022/06/14 07:38:36;;;;;;;1999.90;999.90;;;27.00;84.20;;;;;;4938847;29;20411;-85
2022/06/14 07:41:16;;;;;;;1999.90;999.90;;;27.80;82.10;;;;;;4932871;29;20024;-89
2022/06/14 07:44:13;;;;;;;1999.90;999.90;;;28.30;81.20;;;;;;4944953;28;20031;-88
2022/06/14 07:46:54;;;;;;;1999.90;999.90;;;28.60;80.00;;;;;;4950461;28;20533;-88
2022/06/14 07:49:37;;;;;;;1999.90;999.90;;;29.20;79.40;;;;;;4950339;28;20031;-89
2022/06/14 07:52:31;;;;;;;1999.90;999.90;;;29.20;79.30;;;;;;4944006;28;20301;-88
2022/06/14 07:55:18;;;;;;;1999.90;999.90;;;30.00;78.70;;;;;;4924082;29;20052;-87
2022/06/14 07:57:46;;;;;;;1999.90;999.90;;;30.10;77.60;;;;;;4927131;29;20322;-84
2022/06/14 08:03:13;;;;;;;1999.90;999.90;;;30.50;77.00;;;;;;4933795;29;20075;-89
2022/06/14 08:05:42;;;;;;;1999.90;999.90;;;31.10;77.80;;;;;;4934689;29;20023;-79
2022/06/14 08:08:13;;;;;;;1999.90;999.90;;;31.10;76.10;;;;;;4929987;29;20032;-79
2022/06/14 08:10:42;;;;;;;1999.90;999.90;;;31.30;75.40;;;;;;4920116;29;20043;-79
2022/06/14 08:13:12;;;;;;;1999.90;999.90;;;31.30;76.10;;;;;;4939905;29;20035;-88
2022/06/14 08:15:42;;;;;;;1999.90;999.90;;;31.90;75.20;;;;;;4939456;29;20522;-88
2022/06/14 08:18:48;;;;;;;1999.90;999.90;;;32.20;74.70;;;;;;4941334;28;20031;-87
2022/06/14 08:21:27;;;;;;;1999.90;999.90;;;32.70;75.70;;;;;;4925010;29;20040;-80
2022/06/14 08:24:03;;;;;;;1999.90;999.90;;;33.40;73.20;;;;;;4933511;29;20095;-80
2022/06/14 08:26:56;;;;;;;1999.90;999.90;;;33.50;73.40;;;;;;4932537;29;20037;-80
2022/06/14 08:29:32;;;;;;;1999.90;999.90;;;33.80;72.20;;;;;;4947987;28;20039;-88
2022/06/14 08:32:12;;;;;;;1999.90;999.90;;;33.70;72.40;;;;;;4933445;29;20095;-89
2022/06/14 08:34:58;;;;;;;1999.90;999.90;;;33.90;72.70;;;;;;4916469;29;20443;-80
2022/06/14 08:37:31;;;;;;;1999.90;999.90;;;34.40;72.20;;;;;;4915655;29;20042;-80
2022/06/14 08:40:30;;;;;;;1999.90;999.90;;;34.40;71.80;;;;;;4933270;29;20099;-80
2022/06/14 08:43:04;;;;;;;1999.90;999.90;;;34.40;71.60;;;;;;4938351;29;20446;-87
2022/06/14 08:46:31;;;;;;;1999.90;999.90;;;34.90;71.40;;;;;;4915628;29;20042;-89
2022/06/14 08:49:26;;;;;;;1999.90;999.90;;;34.60;71.10;;;;;;4905193;29;20103;-87
2022/06/14 08:51:58;;;;;;;1999.90;999.90;;;35.50;70.40;;;;;;4879825;29;20072;-88
2022/06/14 08:54:49;;;;;;;1999.90;999.90;;;35.40;70.30;;;;;;4933115;29;20050;-88
2022/06/14 08:57:40;;;;;;;1999.90;999.90;;;35.30;69.80;;;;;;4929758;29;20042;-87
2022/06/14 09:00:41;;;;;;;1999.90;999.90;;;35.60;69.70;;;;;;4919821;29;20115;-88
2022/06/14 09:03:22;;;;;;;1999.90;999.90;;;35.10;69.80;;;;;;4927729;29;20050;-80
2022/06/14 09:06:00;;;;;;;1999.90;999.90;;;35.40;70.40;;;;;;4915464;29;20406;-80
2022/06/14 09:08:50;;;;;;;1999.90;999.90;;;35.80;69.70;;;;;;4931538;29;20031;-86
2022/06/14 09:11:53;;;;;;;1999.90;999.90;;;35.90;69.50;;;;;;4932199;29;20039;-85
2022/06/14 09:14:37;;;;;;;1999.90;999.90;;;36.20;69.90;;;;;;4915661;29;20106;-85
2022/06/14 09:17:27;;;;;;;1999.90;999.90;;;36.20;69.10;;;;;;4932639;29;20062;-90
2022/06/14 09:20:26;;;;;;;1999.90;999.90;;;35.90;69.30;;;;;;4929765;29;20526;-84
2022/06/14 09:23:05;;;;;;;1999.90;999.90;;;36.10;69.20;;;;;;4925880;29;20035;-86
2022/06/14 09:25:57;;;;;;;1999.90;999.90;;;36.40;68.40;;;;;;4914553;29;20034;-87
2022/06/14 09:28:47;;;;;;;1999.90;999.90;;;36.10;68.60;;;;;;4926335;29;20031;-80
2022/06/14 09:31:29;;;;;;;1999.90;999.90;;;36.20;68.30;;;;;;4925587;29;20031;-81
2022/06/14 09:34:25;;;;;;;1999.90;999.90;;;36.40;67.30;;;;;;4936458;29;20042;-86
2022/06/14 09:37:12;;;;;;;1999.90;999.90;;;36.10;68.30;;;;;;4930822;29;20055;-80
2022/06/14 09:40:06;;;;;;;1999.90;999.90;;;36.10;68.10;;;;;;4938741;29;20071;-80
2022/06/14 09:42:47;;;;;;;1999.90;999.90;;;36.50;67.60;;;;;;4934744;29;20034;-86
2022/06/14 09:45:32;;;;;;;;;;;36.00;68.30;;;;;;4933027;29;20492;-87
2022/06/14 09:48:25;;;;;;;1999.90;999.90;;;36.20;68.20;;;;;;4939046;29;19950;-86
2022/06/14 09:50:53;;;;;;;1999.90;999.90;;;35.20;67.50;;;;;;4934294;29;20042;-80
2022/06/14 09:53:56;;;;;;;1999.90;999.90;;;34.90;68.30;;;;;;4955878;28;20046;-86
2022/06/14 09:56:43;;;;;;;1999.90;999.90;;;35.60;67.70;;;;;;4956320;28;20027;-80
2022/06/14 09:59:28;;;;;;;1999.90;999.90;;;34.40;68.50;;;;;;4956804;28;20513;-86
2022/06/14 10:02:02;;;;;;;1999.90;999.90;;;34.10;69.20;;;;;;4951836;29;20023;-85
2022/06/14 10:04:54;;;;;;;1999.90;999.90;;;34.10;68.80;;;;;;4953604;29;20023;-79
2022/06/14 10:07:41;;;;;;;1999.90;999.90;;;34.50;68.70;;;;;;4954573;29;20538;-87
2022/06/14 10:10:12;;;;;;;1999.90;999.90;;;35.00;68.00;;;;;;4937881;28;20043;-87
2022/06/14 10:13:10;;;;;;;1999.90;999.90;;;36.40;67.20;;;;;;4955002;28;20070;-81
2022/06/14 10:15:38;;;;;;;1999.90;999.90;;;37.00;67.30;;;;;;4954219;28;20186;-85
2022/06/14 10:18:33;;;;;;;1999.90;999.90;;;37.20;66.40;;;;;;4957289;28;20031;-87
2022/06/14 10:21:05;;;;;;;1999.90;999.90;;;37.50;65.40;;;;;;4970835;28;20047;-80
2022/06/14 10:23:45;;;;;;;;;;;38.00;65.10;;;;;;4963830;28;20031;-82
2022/06/14 10:29:26;;;;;;;;;;;37.40;65.50;;;;;;4973869;28;20065;-85
2022/06/14 10:32:26;;;;;;;1999.90;999.90;;;37.50;66.00;;;;;;4981136;28;19953;-80
2022/06/14 10:35:10;;;;;;;1999.90;999.90;;;37.80;64.00;;;;;;4872142;29;20034;-80
2022/06/14 10:38:11;;;;;;;1999.90;999.90;;;37.70;64.40;;;;;;4879510;29;20037;-81
2022/06/14 10:40:55;;;;;;;1999.90;999.90;;;37.80;65.40;;;;;;4859092;29;20493;-84
2022/06/14 10:43:31;;;;;;;1999.90;999.90;;;38.00;64.20;;;;;;4859880;29;20173;-86
2022/06/14 10:46:03;;;;;;;1999.90;999.90;;;38.00;64.10;;;;;;4857883;29;20553;-81
2022/06/14 10:48:50;;;;;;;1999.90;999.90;;;38.10;62.90;;;;;;4861465;29;20458;-80
2022/06/14 10:51:42;;;;;;;1999.90;999.90;;;38.10;64.20;;;;;;4857324;29;20046;-85
2022/06/14 10:54:26;;;;;;;1999.90;999.90;;;38.10;63.70;;;;;;4862206;29;20041;-82
2022/06/14 10:57:01;;;;;;;1999.90;999.90;;;38.20;64.40;;;;;;4862676;29;20057;-80
2022/06/14 11:00:03;;;;;;;1999.90;999.90;;;38.40;63.20;;;;;;4853841;29;20458;-85
2022/06/14 11:03:02;;;;;;;1999.90;999.90;;;37.90;63.20;;;;;;4844857;29;20037;-81
2022/06/14 11:05:37;;;;;;;1999.90;999.90;;;37.90;63.60;;;;;;4860655;29;20053;-87
2022/06/14 11:08:24;;;;;;;1999.90;999.90;;;38.30;63.70;;;;;;4872345;29;20047;-86
2022/06/14 11:10:50;;;;;;;1999.90;999.90;;;38.50;62.90;;;;;;4932112;28;20035;-81
2022/06/14 11:13:40;;;;;;;1999.90;999.90;;;38.70;62.50;;;;;;4950277;28;20039;-81
2022/06/14 11:16:36;;;;;;;1999.90;999.90;;;38.90;63.50;;;;;;4953704;28;20382;-83
2022/06/14 11:19:29;;;;;;;1999.90;999.90;;;38.80;61.70;;;;;;4936913;29;20399;-81
2022/06/14 11:22:10;;;;;;;1999.90;999.90;;;39.00;61.00;;;;;;4954836;28;20074;-81
2022/06/14 11:24:45;;;;;;;1999.90;999.90;;;38.80;59.30;;;;;;4952970;28;20063;-86
2022/06/14 11:27:16;;;;;;;1999.90;999.90;;;38.50;59.90;;;;;;4946406;29;20086;-81
2022/06/14 11:30:20;;;;;;;1999.90;999.90;;;38.70;60.80;;;;;;4958794;28;20509;-85
2022/06/14 11:33:16;;;;;;;1999.90;999.90;;;39.00;60.50;;;;;;4952652;28;20035;-84
2022/06/14 11:36:06;;;;;;;1999.90;999.90;;;38.70;59.70;;;;;;4934845;28;20399;-80
2022/06/14 11:39:00;;;;;;;1999.90;999.90;;;38.60;62.30;;;;;;4934513;29;20039;-80
2022/06/14 11:41:30;;;;;;;1999.90;999.90;;;38.50;58.50;;;;;;4951886;29;20671;-81
2022/06/14 11:44:30;;;;;;;1999.90;999.90;;;38.80;58.70;;;;;;4953573;28;20078;-85
2022/06/14 11:47:15;;;;;;;1999.90;999.90;;;38.90;59.50;;;;;;4953598;28;20027;-85
2022/06/14 11:50:02;;;;;;;1999.90;999.90;;;39.20;59.50;;;;;;4954883;28;20057;-80
2022/06/14 11:52:36;;;;;;;1999.90;999.90;;;39.30;60.90;;;;;;4950902;28;20058;-80
2022/06/14 11:55:20;;;;;;;1999.90;999.90;;;38.80;60.00;;;;;;4960821;28;20031;-87
2022/06/14 11:58:01;;;;;;;1999.90;999.90;;;38.70;60.90;;;;;;4958393;28;20082;-85
2022/06/14 12:01:11;;;;;;;1999.90;999.90;;;38.90;59.90;;;;;;4952513;28;20035;-80
2022/06/14 12:04:11;;;;;;;1999.90;999.90;;;39.30;58.70;;;;;;4916029;28;20622;-88
2022/06/14 12:07:02;;;;;;;1999.90;999.90;;;38.70;58.80;;;;;;4942880;29;20410;-87
2022/06/14 12:09:33;;;;;;;1999.90;999.90;;;38.50;59.00;;;;;;4949996;28;20045;-89
2022/06/14 12:12:21;;;;;;;1999.90;999.90;;;38.50;57.50;;;;;;4951017;28;20035;-89
2022/06/14 12:14:53;;;;;;;1999.90;999.90;;;38.50;57.30;;;;;;4938302;28;20034;-84
2022/06/14 12:17:30;;;;;;;1999.90;999.90;;;38.50;57.30;;;;;;4946378;29;20034;-88
2022/06/14 12:20:05;;;;;;;1999.90;999.90;;;38.60;57.30;;;;;;4946640;28;20042;-80
2022/06/14 12:22:55;;;;;;;1999.90;999.90;;;38.40;59.20;;;;;;4949698;28;20105;-86
2022/06/14 12:28:58;;;;;;;1999.90;999.90;;;38.30;60.10;;;;;;4911773;29;20469;-80
2022/06/14 12:31:45;;;;;;;1999.90;999.90;;;38.40;57.50;;;;;;4915296;29;20047;-79
2022/06/14 12:34:19;;;;;;;1999.90;999.90;;;38.20;55.60;;;;;;4946332;28;20061;-84
2022/06/14 12:36:50;;;;;;;1999.90;999.90;;;38.10;55.40;;;;;;4938399;29;20076;-85
2022/06/14 12:39:32;;;;;;;1999.90;999.90;;;38.30;57.50;;;;;;4955277;28;20119;-85
2022/06/14 12:41:57;;;;;;;;;;;38.20;57.80;;;;;;4957836;28;20511;-80
2022/06/14 12:44:37;;;;;;;1999.90;999.90;;;38.00;58.80;;;;;;4952860;28;20009;-89
2022/06/14 12:47:08;;;;;;;1999.90;999.90;;;37.90;56.60;;;;;;4954288;28;20421;-84
2022/06/14 12:49:42;;;;;;;1999.90;999.90;;;37.70;55.50;;;;;;4955673;28;20035;-86
2022/06/14 12:52:17;;;;;;;1999.90;999.90;;;37.50;56.10;;;;;;4948010;28;20043;-85
2022/06/14 12:54:59;;;;;;;1999.90;999.90;;;37.20;54.90;;;;;;4933639;29;20039;-80
2022/06/14 12:57:59;;;;;;;1999.90;999.90;;;36.70;55.10;;;;;;4950806;28;20050;-85
2022/06/14 13:00:35;;;;;;;1999.90;999.90;;;36.50;57.00;;;;;;4946284;28;20672;-83
2022/06/14 13:03:16;;;;;;;1999.90;999.90;;;36.50;59.40;;;;;;4950873;28;20031;-84
2022/06/14 13:05:48;;;;;;;1999.90;999.90;;;36.20;59.80;;;;;;4950952;28;20095;-80
2022/06/14 13:08:31;;;;;;;1999.90;999.90;;;36.50;61.40;;;;;;4959334;28;20031;-79
2022/06/14 13:11:05;;;;;;;1999.90;999.90;;;36.50;60.40;;;;;;4952881;28;20402;-85
2022/06/14 13:14:05;;;;;;;1999.90;999.90;;;36.60;59.50;;;;;;4950507;28;20063;-85
2022/06/14 13:16:54;;;;;;;1999.90;999.90;;;36.50;57.90;;;;;;4954544;29;20042;-83
2022/06/14 13:19:39;;;;;;;1999.90;999.90;;;37.10;57.70;;;;;;4949628;28;20043;-85
2022/06/14 13:22:26;;;;;;;1999.90;999.90;;;36.90;56.60;;;;;;4953475;28;20560;-84